sensor_id;sensor_type;location;lat;lon;timestamp;P1;durP1;ratioP1;P2;durP2;ratioP2
22697;SDS011;11516;51.612;7.510;2023-05-09T00:02:25;11.48;;;10.23;;
22697;SDS011;11516;51.612;7.510;2023-05-09T00:04:50;11.60;;;10.50;;
22697;SDS011;11516;51.612;7.510;2023-05-09T00:07:16;11.80;;;10.50;;
22697;SDS011;11516;51.612;7.510;2023-05-09T00:09:41;12.38;;;10.55;;
22697;SDS011;11516;51.612;7.510;2023-05-09T00:12:07;11.65;;;10.48;;
22697;SDS011;11516;51.612;7.510;2023-05-09T00:14:33;14.25;;;10.55;;
22697;SDS011;11516;51.612;7.510;2023-05-09T00:16:59;12.02;;;10.68;;
22697;SDS011;11516;51.612;7.510;2023-05-09T00:19:25;11.63;;;10.25;;
22697;SDS011;11516;51.612;7.510;2023-05-09T00:21:50;11.63;;;10.43;;
22697;SDS011;11516;51.612;7.510;2023-05-09T00:24:16;13.00;;;10.73;;
22697;SDS011;11516;51.612;7.510;2023-05-09T00:26:41;12.57;;;11.27;;
22697;SDS011;11516;51.612;7.510;2023-05-09T00:29:07;12.75;;;11.23;;
22697;SDS011;11516;51.612;7.510;2023-05-09T00:31:32;13.35;;;11.88;;
22697;SDS011;11516;51.612;7.510;2023-05-09T00:33:58;16.65;;;11.80;;
22697;SDS011;11516;51.612;7.510;2023-05-09T00:36:23;13.73;;;11.90;;
22697;SDS011;11516;51.612;7.510;2023-05-09T00:38:49;12.95;;;11.45;;
22697;SDS011;11516;51.612;7.510;2023-05-09T00:41:14;13.52;;;11.48;;
22697;SDS011;11516;51.612;7.510;2023-05-09T00:43:40;12.68;;;11.38;;
22697;SDS011;11516;51.612;7.510;2023-05-09T00:46:05;13.52;;;11.82;;
22697;SDS011;11516;51.612;7.510;2023-05-09T00:48:31;13.38;;;11.98;;
22697;SDS011;11516;51.612;7.510;2023-05-09T00:50:57;13.23;;;11.85;;
22697;SDS011;11516;51.612;7.510;2023-05-09T00:53:23;14.50;;;12.60;;
22697;SDS011;11516;51.612;7.510;2023-05-09T00:55:49;14.15;;;12.65;;
22697;SDS011;11516;51.612;7.510;2023-05-09T00:58:15;14.23;;;12.25;;
22697;SDS011;11516;51.612;7.510;2023-05-09T01:00:41;14.77;;;13.13;;
22697;SDS011;11516;51.612;7.510;2023-05-09T01:03:07;13.90;;;12.45;;
22697;SDS011;11516;51.612;7.510;2023-05-09T01:05:39;14.55;;;13.05;;
22697;SDS011;11516;51.612;7.510;2023-05-09T01:08:40;14.98;;;13.45;;
22697;SDS011;11516;51.612;7.510;2023-05-09T01:11:33;16.05;;;14.13;;
22697;SDS011;11516;51.612;7.510;2023-05-09T01:14:11;16.77;;;14.37;;
22697;SDS011;11516;51.612;7.510;2023-05-09T01:17:02;17.23;;;15.48;;
22697;SDS011;11516;51.612;7.510;2023-05-09T01:22:15;18.10;;;16.30;;
22697;SDS011;11516;51.612;7.510;2023-05-09T01:27:35;20.85;;;18.67;;
22697;SDS011;11516;51.612;7.510;2023-05-09T01:30:09;20.50;;;18.17;;
22697;SDS011;11516;51.612;7.510;2023-05-09T01:32:37;21.15;;;18.98;;
22697;SDS011;11516;51.612;7.510;2023-05-09T01:35:04;21.73;;;18.90;;
22697;SDS011;11516;51.612;7.510;2023-05-09T01:37:32;20.63;;;18.43;;
22697;SDS011;11516;51.612;7.510;2023-05-09T01:40:05;20.83;;;18.67;;
22697;SDS011;11516;51.612;7.510;2023-05-09T01:42:38;21.38;;;19.20;;
22697;SDS011;11516;51.612;7.510;2023-05-09T01:45:07;25.60;;;20.98;;
22697;SDS011;11516;51.612;7.510;2023-05-09T01:47:34;22.88;;;19.33;;
22697;SDS011;11516;51.612;7.510;2023-05-09T01:50:02;20.88;;;18.70;;
22697;SDS011;11516;51.612;7.510;2023-05-09T01:52:29;24.58;;;18.58;;
22697;SDS011;11516;51.612;7.510;2023-05-09T01:54:55;21.43;;;19.23;;
22697;SDS011;11516;51.612;7.510;2023-05-09T01:57:23;21.95;;;19.23;;
22697;SDS011;11516;51.612;7.510;2023-05-09T01:59:50;21.63;;;19.43;;
22697;SDS011;11516;51.612;7.510;2023-05-09T02:02:17;21.27;;;18.98;;
22697;SDS011;11516;51.612;7.510;2023-05-09T02:04:43;21.50;;;19.27;;
22697;SDS011;11516;51.612;7.510;2023-05-09T02:07:10;23.33;;;19.45;;
22697;SDS011;11516;51.612;7.510;2023-05-09T02:09:37;23.65;;;19.55;;
22697;SDS011;11516;51.612;7.510;2023-05-09T02:12:02;23.10;;;19.88;;
22697;SDS011;11516;51.612;7.510;2023-05-09T02:14:28;22.13;;;19.83;;
22697;SDS011;11516;51.612;7.510;2023-05-09T02:16:54;22.52;;;20.17;;
22697;SDS011;11516;51.612;7.510;2023-05-09T02:19:20;23.57;;;21.07;;
22697;SDS011;11516;51.612;7.510;2023-05-09T02:21:45;22.20;;;19.83;;
22697;SDS011;11516;51.612;7.510;2023-05-09T02:24:11;21.67;;;19.37;;
22697;SDS011;11516;51.612;7.510;2023-05-09T02:26:36;22.30;;;19.90;;
22697;SDS011;11516;51.612;7.510;2023-05-09T02:29:03;22.08;;;19.52;;
22697;SDS011;11516;51.612;7.510;2023-05-09T02:31:31;22.20;;;19.27;;
22697;SDS011;11516;51.612;7.510;2023-05-09T02:33:58;21.90;;;19.65;;
22697;SDS011;11516;51.612;7.510;2023-05-09T02:36:25;21.70;;;19.42;;
22697;SDS011;11516;51.612;7.510;2023-05-09T02:38:51;22.02;;;19.40;;
22697;SDS011;11516;51.612;7.510;2023-05-09T02:41:17;22.63;;;20.13;;
22697;SDS011;11516;51.612;7.510;2023-05-09T02:43:43;24.03;;;21.47;;
22697;SDS011;11516;51.612;7.510;2023-05-09T02:46:09;24.23;;;20.77;;
22697;SDS011;11516;51.612;7.510;2023-05-09T02:48:35;22.47;;;20.07;;
22697;SDS011;11516;51.612;7.510;2023-05-09T02:51:01;20.63;;;18.42;;
22697;SDS011;11516;51.612;7.510;2023-05-09T02:53:27;21.05;;;18.85;;
22697;SDS011;11516;51.612;7.510;2023-05-09T02:55:52;20.57;;;18.47;;
22697;SDS011;11516;51.612;7.510;2023-05-09T02:58:18;20.77;;;18.57;;
22697;SDS011;11516;51.612;7.510;2023-05-09T03:00:44;20.75;;;18.30;;
22697;SDS011;11516;51.612;7.510;2023-05-09T03:03:10;19.90;;;17.83;;
22697;SDS011;11516;51.612;7.510;2023-05-09T03:05:35;20.58;;;18.40;;
22697;SDS011;11516;51.612;7.510;2023-05-09T03:08:01;21.23;;;18.30;;
22697;SDS011;11516;51.612;7.510;2023-05-09T03:10:26;20.33;;;18.23;;
22697;SDS011;11516;51.612;7.510;2023-05-09T03:12:52;19.17;;;17.27;;
22697;SDS011;11516;51.612;7.510;2023-05-09T03:15:18;21.10;;;17.30;;
22697;SDS011;11516;51.612;7.510;2023-05-09T03:17:44;18.75;;;16.75;;
22697;SDS011;11516;51.612;7.510;2023-05-09T03:20:10;18.60;;;16.65;;
22697;SDS011;11516;51.612;7.510;2023-05-09T03:22:36;25.30;;;18.00;;
22697;SDS011;11516;51.612;7.510;2023-05-09T03:25:02;17.73;;;15.95;;
22697;SDS011;11516;51.612;7.510;2023-05-09T03:27:28;18.80;;;16.80;;
22697;SDS011;11516;51.612;7.510;2023-05-09T03:29:53;18.60;;;16.63;;
22697;SDS011;11516;51.612;7.510;2023-05-09T03:32:19;18.88;;;17.00;;
22697;SDS011;11516;51.612;7.510;2023-05-09T03:34:44;18.67;;;16.67;;
22697;SDS011;11516;51.612;7.510;2023-05-09T03:37:10;18.73;;;16.73;;
22697;SDS011;11516;51.612;7.510;2023-05-09T03:39:35;19.97;;;17.60;;
22697;SDS011;11516;51.612;7.510;2023-05-09T03:42:01;21.40;;;18.43;;
22697;SDS011;11516;51.612;7.510;2023-05-09T03:44:26;19.83;;;17.73;;
22697;SDS011;11516;51.612;7.510;2023-05-09T03:46:52;18.60;;;16.67;;
22697;SDS011;11516;51.612;7.510;2023-05-09T03:49:17;19.13;;;17.07;;
22697;SDS011;11516;51.612;7.510;2023-05-09T03:51:43;19.57;;;17.27;;
22697;SDS011;11516;51.612;7.510;2023-05-09T03:54:08;19.47;;;17.23;;
22697;SDS011;11516;51.612;7.510;2023-05-09T03:56:34;22.97;;;18.13;;
22697;SDS011;11516;51.612;7.510;2023-05-09T03:59:00;19.87;;;17.60;;
22697;SDS011;11516;51.612;7.510;2023-05-09T04:01:25;19.23;;;17.10;;
22697;SDS011;11516;51.612;7.510;2023-05-09T04:03:51;19.90;;;17.33;;
22697;SDS011;11516;51.612;7.510;2023-05-09T04:06:17;19.48;;;17.30;;
22697;SDS011;11516;51.612;7.510;2023-05-09T04:08:43;21.93;;;17.63;;
22697;SDS011;11516;51.612;7.510;2023-05-09T04:11:09;18.40;;;16.50;;
22697;SDS011;11516;51.612;7.510;2023-05-09T04:13:34;20.23;;;17.08;;
22697;SDS011;11516;51.612;7.510;2023-05-09T04:16:00;19.13;;;17.23;;
22697;SDS011;11516;51.612;7.510;2023-05-09T04:18:26;20.03;;;17.93;;
22697;SDS011;11516;51.612;7.510;2023-05-09T04:20:51;19.33;;;17.33;;
22697;SDS011;11516;51.612;7.510;2023-05-09T04:23:17;20.13;;;17.10;;
22697;SDS011;11516;51.612;7.510;2023-05-09T04:25:43;20.70;;;17.25;;
22697;SDS011;11516;51.612;7.510;2023-05-09T04:28:09;21.15;;;17.83;;
22697;SDS011;11516;51.612;7.510;2023-05-09T04:30:34;24.33;;;17.67;;
22697;SDS011;11516;51.612;7.510;2023-05-09T04:33:01;19.92;;;17.35;;
22697;SDS011;11516;51.612;7.510;2023-05-09T04:35:26;20.60;;;17.67;;
22697;SDS011;11516;51.612;7.510;2023-05-09T04:37:52;21.43;;;17.67;;
22697;SDS011;11516;51.612;7.510;2023-05-09T04:40:17;20.23;;;18.00;;
22697;SDS011;11516;51.612;7.510;2023-05-09T04:42:43;20.17;;;17.03;;
22697;SDS011;11516;51.612;7.510;2023-05-09T04:45:09;22.07;;;17.37;;
22697;SDS011;11516;51.612;7.510;2023-05-09T04:47:35;20.10;;;17.50;;
22697;SDS011;11516;51.612;7.510;2023-05-09T04:50:01;20.17;;;17.52;;
22697;SDS011;11516;51.612;7.510;2023-05-09T04:52:27;20.93;;;17.83;;
22697;SDS011;11516;51.612;7.510;2023-05-09T04:54:53;23.63;;;18.57;;
22697;SDS011;11516;51.612;7.510;2023-05-09T04:57:18;20.97;;;18.00;;
22697;SDS011;11516;51.612;7.510;2023-05-09T04:59:44;23.63;;;17.70;;
22697;SDS011;11516;51.612;7.510;2023-05-09T05:02:09;19.37;;;17.17;;
22697;SDS011;11516;51.612;7.510;2023-05-09T05:04:35;18.87;;;16.90;;
22697;SDS011;11516;51.612;7.510;2023-05-09T05:07:01;19.25;;;17.13;;
22697;SDS011;11516;51.612;7.510;2023-05-09T05:09:26;21.85;;;17.63;;
22697;SDS011;11516;51.612;7.510;2023-05-09T05:11:52;19.08;;;16.85;;
22697;SDS011;11516;51.612;7.510;2023-05-09T05:14:17;22.05;;;16.92;;
22697;SDS011;11516;51.612;7.510;2023-05-09T05:16:43;19.23;;;17.23;;
22697;SDS011;11516;51.612;7.510;2023-05-09T05:19:08;19.57;;;17.27;;
22697;SDS011;11516;51.612;7.510;2023-05-09T05:21:34;19.97;;;17.33;;
22697;SDS011;11516;51.612;7.510;2023-05-09T05:23:59;19.90;;;17.80;;
22697;SDS011;11516;51.612;7.510;2023-05-09T05:26:25;22.37;;;17.13;;
22697;SDS011;11516;51.612;7.510;2023-05-09T05:28:50;23.73;;;18.63;;
22697;SDS011;11516;51.612;7.510;2023-05-09T05:31:19;20.98;;;18.63;;
22697;SDS011;11516;51.612;7.510;2023-05-09T05:33:45;21.77;;;18.40;;
22697;SDS011;11516;51.612;7.510;2023-05-09T05:36:10;23.13;;;18.83;;
22697;SDS011;11516;51.612;7.510;2023-05-09T05:38:36;22.10;;;18.57;;
22697;SDS011;11516;51.612;7.510;2023-05-09T05:41:01;22.13;;;19.57;;
22697;SDS011;11516;51.612;7.510;2023-05-09T05:43:27;22.17;;;18.93;;
22697;SDS011;11516;51.612;7.510;2023-05-09T05:45:53;21.57;;;18.90;;
22697;SDS011;11516;51.612;7.510;2023-05-09T05:48:19;22.50;;;19.57;;
22697;SDS011;11516;51.612;7.510;2023-05-09T05:50:44;22.13;;;19.50;;
22697;SDS011;11516;51.612;7.510;2023-05-09T05:53:10;21.23;;;19.03;;
22697;SDS011;11516;51.612;7.510;2023-05-09T05:55:35;22.93;;;19.70;;
22697;SDS011;11516;51.612;7.510;2023-05-09T05:58:01;22.77;;;19.20;;
22697;SDS011;11516;51.612;7.510;2023-05-09T06:00:26;21.13;;;18.27;;
22697;SDS011;11516;51.612;7.510;2023-05-09T06:02:52;25.10;;;18.90;;
22697;SDS011;11516;51.612;7.510;2023-05-09T06:05:18;20.97;;;18.67;;
22697;SDS011;11516;51.612;7.510;2023-05-09T06:07:43;21.33;;;18.67;;
22697;SDS011;11516;51.612;7.510;2023-05-09T06:10:09;20.88;;;18.63;;
22697;SDS011;11516;51.612;7.510;2023-05-09T06:12:35;21.10;;;17.80;;
22697;SDS011;11516;51.612;7.510;2023-05-09T06:15:01;21.37;;;18.97;;
22697;SDS011;11516;51.612;7.510;2023-05-09T06:17:29;21.05;;;18.35;;
22697;SDS011;11516;51.612;7.510;2023-05-09T06:19:55;20.60;;;17.97;;
22697;SDS011;11516;51.612;7.510;2023-05-09T06:22:20;20.90;;;18.57;;
22697;SDS011;11516;51.612;7.510;2023-05-09T06:24:46;22.50;;;19.20;;
22697;SDS011;11516;51.612;7.510;2023-05-09T06:27:12;21.10;;;18.90;;
22697;SDS011;11516;51.612;7.510;2023-05-09T06:29:37;24.40;;;18.90;;
22697;SDS011;11516;51.612;7.510;2023-05-09T06:32:03;28.07;;;19.40;;
22697;SDS011;11516;51.612;7.510;2023-05-09T06:34:29;30.38;;;19.60;;
22697;SDS011;11516;51.612;7.510;2023-05-09T06:36:54;22.27;;;18.80;;
22697;SDS011;11516;51.612;7.510;2023-05-09T06:39:20;22.33;;;18.35;;
22697;SDS011;11516;51.612;7.510;2023-05-09T06:41:45;21.57;;;18.57;;
22697;SDS011;11516;51.612;7.510;2023-05-09T06:44:11;21.77;;;18.33;;
22697;SDS011;11516;51.612;7.510;2023-05-09T06:46:36;20.13;;;17.97;;
22697;SDS011;11516;51.612;7.510;2023-05-09T06:49:02;23.67;;;18.87;;
22697;SDS011;11516;51.612;7.510;2023-05-09T06:51:27;21.63;;;18.30;;
22697;SDS011;11516;51.612;7.510;2023-05-09T06:53:53;23.83;;;18.83;;
22697;SDS011;11516;51.612;7.510;2023-05-09T06:56:18;20.17;;;17.97;;
22697;SDS011;11516;51.612;7.510;2023-05-09T06:58:46;23.02;;;18.13;;
22697;SDS011;11516;51.612;7.510;2023-05-09T07:01:12;23.27;;;18.10;;
22697;SDS011;11516;51.612;7.510;2023-05-09T07:03:37;20.90;;;18.37;;
22697;SDS011;11516;51.612;7.510;2023-05-09T07:06:03;20.00;;;17.80;;
22697;SDS011;11516;51.612;7.510;2023-05-09T07:08:29;19.93;;;17.23;;
22697;SDS011;11516;51.612;7.510;2023-05-09T07:10:54;24.03;;;18.10;;
22697;SDS011;11516;51.612;7.510;2023-05-09T07:13:20;22.57;;;17.47;;
22697;SDS011;11516;51.612;7.510;2023-05-09T07:15:58;20.00;;;17.80;;
22697;SDS011;11516;51.612;7.510;2023-05-09T07:18:23;20.37;;;18.10;;
22697;SDS011;11516;51.612;7.510;2023-05-09T07:20:49;20.93;;;17.73;;
22697;SDS011;11516;51.612;7.510;2023-05-09T07:23:14;19.00;;;16.83;;
22697;SDS011;11516;51.612;7.510;2023-05-09T07:25:40;19.33;;;17.10;;
22697;SDS011;11516;51.612;7.510;2023-05-09T07:28:06;19.37;;;16.80;;
22697;SDS011;11516;51.612;7.510;2023-05-09T07:30:31;19.10;;;16.70;;
22697;SDS011;11516;51.612;7.510;2023-05-09T07:32:57;17.73;;;15.70;;
22697;SDS011;11516;51.612;7.510;2023-05-09T07:35:22;17.83;;;15.25;;
22697;SDS011;11516;51.612;7.510;2023-05-09T07:37:48;17.65;;;15.52;;
22697;SDS011;11516;51.612;7.510;2023-05-09T07:40:13;17.65;;;15.85;;
22697;SDS011;11516;51.612;7.510;2023-05-09T07:42:39;17.80;;;15.77;;
22697;SDS011;11516;51.612;7.510;2023-05-09T07:45:05;18.20;;;15.50;;
22697;SDS011;11516;51.612;7.510;2023-05-09T07:47:31;20.00;;;15.85;;
22697;SDS011;11516;51.612;7.510;2023-05-09T07:49:57;17.35;;;15.55;;
22697;SDS011;11516;51.612;7.510;2023-05-09T07:52:22;17.02;;;15.07;;
22697;SDS011;11516;51.612;7.510;2023-05-09T07:54:48;18.37;;;15.73;;
22697;SDS011;11516;51.612;7.510;2023-05-09T07:57:14;17.55;;;15.65;;
22697;SDS011;11516;51.612;7.510;2023-05-09T07:59:40;17.70;;;15.48;;
22697;SDS011;11516;51.612;7.510;2023-05-09T08:02:06;16.60;;;14.80;;
22697;SDS011;11516;51.612;7.510;2023-05-09T08:04:32;16.23;;;14.52;;
22697;SDS011;11516;51.612;7.510;2023-05-09T08:06:57;16.40;;;14.70;;
22697;SDS011;11516;51.612;7.510;2023-05-09T08:09:23;16.87;;;15.07;;
22697;SDS011;11516;51.612;7.510;2023-05-09T08:11:50;18.65;;;14.80;;
22697;SDS011;11516;51.612;7.510;2023-05-09T08:14:16;17.98;;;15.02;;
22697;SDS011;11516;51.612;7.510;2023-05-09T08:16:41;15.53;;;13.70;;
22697;SDS011;11516;51.612;7.510;2023-05-09T08:19:07;14.70;;;12.90;;
22697;SDS011;11516;51.612;7.510;2023-05-09T08:21:33;15.38;;;13.23;;
22697;SDS011;11516;51.612;7.510;2023-05-09T08:23:58;14.90;;;12.83;;
22697;SDS011;11516;51.612;7.510;2023-05-09T08:26:25;15.68;;;13.23;;
22697;SDS011;11516;51.612;7.510;2023-05-09T08:28:51;13.75;;;12.35;;
22697;SDS011;11516;51.612;7.510;2023-05-09T08:31:18;12.85;;;11.38;;
22697;SDS011;11516;51.612;7.510;2023-05-09T08:33:43;13.43;;;12.02;;
22697;SDS011;11516;51.612;7.510;2023-05-09T08:36:09;14.50;;;11.88;;
22697;SDS011;11516;51.612;7.510;2023-05-09T08:38:34;12.90;;;11.40;;
22697;SDS011;11516;51.612;7.510;2023-05-09T08:41:00;15.93;;;12.50;;
22697;SDS011;11516;51.612;7.510;2023-05-09T08:43:27;13.15;;;11.75;;
22697;SDS011;11516;51.612;7.510;2023-05-09T08:45:57;17.50;;;12.93;;
22697;SDS011;11516;51.612;7.510;2023-05-09T08:48:24;14.73;;;12.55;;
22697;SDS011;11516;51.612;7.510;2023-05-09T08:50:51;14.10;;;11.90;;
22697;SDS011;11516;51.612;7.510;2023-05-09T08:53:19;15.47;;;12.50;;
22697;SDS011;11516;51.612;7.510;2023-05-09T08:55:45;14.32;;;12.50;;
22697;SDS011;11516;51.612;7.510;2023-05-09T08:58:12;15.05;;;13.15;;
22697;SDS011;11516;51.612;7.510;2023-05-09T09:00:37;17.08;;;13.20;;
22697;SDS011;11516;51.612;7.510;2023-05-09T09:03:05;14.25;;;12.52;;
22697;SDS011;11516;51.612;7.510;2023-05-09T09:05:35;14.90;;;12.10;;
22697;SDS011;11516;51.612;7.510;2023-05-09T09:08:02;13.03;;;11.73;;
22697;SDS011;11516;51.612;7.510;2023-05-09T09:10:30;14.95;;;11.38;;
22697;SDS011;11516;51.612;7.510;2023-05-09T09:12:57;13.40;;;12.10;;
22697;SDS011;11516;51.612;7.510;2023-05-09T09:15:24;12.60;;;11.30;;
22697;SDS011;11516;51.612;7.510;2023-05-09T09:17:53;13.23;;;11.50;;
22697;SDS011;11516;51.612;7.510;2023-05-09T09:20:20;12.52;;;11.25;;
22697;SDS011;11516;51.612;7.510;2023-05-09T09:22:47;12.65;;;11.40;;
22697;SDS011;11516;51.612;7.510;2023-05-09T09:25:15;12.05;;;10.88;;
22697;SDS011;11516;51.612;7.510;2023-05-09T09:27:41;12.00;;;10.33;;
22697;SDS011;11516;51.612;7.510;2023-05-09T09:30:10;11.70;;;10.50;;
22697;SDS011;11516;51.612;7.510;2023-05-09T09:32:36;11.45;;;10.25;;
22697;SDS011;11516;51.612;7.510;2023-05-09T09:35:07;10.88;;;9.30;;
22697;SDS011;11516;51.612;7.510;2023-05-09T09:37:34;11.27;;;10.13;;
22697;SDS011;11516;51.612;7.510;2023-05-09T09:40:00;11.17;;;9.97;;
22697;SDS011;11516;51.612;7.510;2023-05-09T09:42:26;10.82;;;9.73;;
22697;SDS011;11516;51.612;7.510;2023-05-09T09:45:11;10.45;;;9.35;;
22697;SDS011;11516;51.612;7.510;2023-05-09T09:47:38;10.10;;;9.07;;
22697;SDS011;11516;51.612;7.510;2023-05-09T09:50:11;9.75;;;8.75;;
22697;SDS011;11516;51.612;7.510;2023-05-09T09:52:54;10.32;;;8.05;;
22697;SDS011;11516;51.612;7.510;2023-05-09T09:55:21;11.63;;;8.10;;
22697;SDS011;11516;51.612;7.510;2023-05-09T09:57:48;8.90;;;8.00;;
22697;SDS011;11516;51.612;7.510;2023-05-09T10:00:15;9.70;;;8.77;;
22697;SDS011;11516;51.612;7.510;2023-05-09T10:02:49;8.90;;;7.97;;
22697;SDS011;11516;51.612;7.510;2023-05-09T10:05:20;9.73;;;8.52;;
22697;SDS011;11516;51.612;7.510;2023-05-09T10:10:20;9.75;;;8.75;;
22697;SDS011;11516;51.612;7.510;2023-05-09T10:12:46;9.32;;;8.38;;
22697;SDS011;11516;51.612;7.510;2023-05-09T10:15:15;9.70;;;8.10;;
22697;SDS011;11516;51.612;7.510;2023-05-09T10:17:42;9.32;;;8.30;;
22697;SDS011;11516;51.612;7.510;2023-05-09T10:20:08;9.10;;;8.07;;
22697;SDS011;11516;51.612;7.510;2023-05-09T10:22:36;9.00;;;7.68;;
22697;SDS011;11516;51.612;7.510;2023-05-09T10:25:04;8.75;;;7.82;;
22697;SDS011;11516;51.612;7.510;2023-05-09T10:27:36;7.85;;;6.88;;
22697;SDS011;11516;51.612;7.510;2023-05-09T10:30:10;8.90;;;7.78;;
22697;SDS011;11516;51.612;7.510;2023-05-09T10:33:02;9.38;;;7.47;;
22697;SDS011;11516;51.612;7.510;2023-05-09T10:35:32;8.85;;;7.05;;
22697;SDS011;11516;51.612;7.510;2023-05-09T10:38:03;7.80;;;6.65;;
22697;SDS011;11516;51.612;7.510;2023-05-09T10:40:30;7.05;;;5.70;;
22697;SDS011;11516;51.612;7.510;2023-05-09T10:42:57;6.43;;;5.73;;
22697;SDS011;11516;51.612;7.510;2023-05-09T10:45:23;6.13;;;5.53;;
22697;SDS011;11516;51.612;7.510;2023-05-09T10:47:50;6.35;;;5.40;;
22697;SDS011;11516;51.612;7.510;2023-05-09T10:50:17;8.55;;;6.13;;
22697;SDS011;11516;51.612;7.510;2023-05-09T10:55:50;5.82;;;5.20;;
22697;SDS011;11516;51.612;7.510;2023-05-09T10:58:28;9.20;;;5.65;;
22697;SDS011;11516;51.612;7.510;2023-05-09T11:00:58;7.63;;;5.53;;
22697;SDS011;11516;51.612;7.510;2023-05-09T11:03:25;7.40;;;6.60;;
22697;SDS011;11516;51.612;7.510;2023-05-09T11:05:55;6.10;;;5.47;;
22697;SDS011;11516;51.612;7.510;2023-05-09T11:08:28;5.93;;;5.32;;
22697;SDS011;11516;51.612;7.510;2023-05-09T11:10:55;5.50;;;4.78;;
22697;SDS011;11516;51.612;7.510;2023-05-09T11:13:24;6.63;;;5.30;;
22697;SDS011;11516;51.612;7.510;2023-05-09T11:18:27;5.88;;;5.28;;
22697;SDS011;11516;51.612;7.510;2023-05-09T11:20:53;6.15;;;5.55;;
22697;SDS011;11516;51.612;7.510;2023-05-09T11:23:20;5.22;;;4.60;;
22697;SDS011;11516;51.612;7.510;2023-05-09T11:25:49;5.80;;;4.57;;
22697;SDS011;11516;51.612;7.510;2023-05-09T11:28:31;5.00;;;4.50;;
22697;SDS011;11516;51.612;7.510;2023-05-09T11:31:14;7.50;;;6.57;;
22697;SDS011;11516;51.612;7.510;2023-05-09T11:33:43;6.40;;;5.00;;
22697;SDS011;11516;51.612;7.510;2023-05-09T11:36:13;4.83;;;4.17;;
22697;SDS011;11516;51.612;7.510;2023-05-09T11:41:38;5.50;;;4.40;;
22697;SDS011;11516;51.612;7.510;2023-05-09T11:44:11;4.78;;;4.35;;
22697;SDS011;11516;51.612;7.510;2023-05-09T11:46:38;4.97;;;4.00;;
22697;SDS011;11516;51.612;7.510;2023-05-09T11:49:05;4.00;;;3.50;;
22697;SDS011;11516;51.612;7.510;2023-05-09T11:51:34;7.63;;;3.90;;
22697;SDS011;11516;51.612;7.510;2023-05-09T11:54:01;4.28;;;3.88;;
22697;SDS011;11516;51.612;7.510;2023-05-09T11:56:28;4.50;;;3.92;;
22697;SDS011;11516;51.612;7.510;2023-05-09T11:58:54;5.75;;;4.28;;
22697;SDS011;11516;51.612;7.510;2023-05-09T12:01:20;5.75;;;3.80;;
22697;SDS011;11516;51.612;7.510;2023-05-09T12:03:47;5.13;;;3.90;;
22697;SDS011;11516;51.612;7.510;2023-05-09T12:06:17;5.10;;;4.22;;
22697;SDS011;11516;51.612;7.510;2023-05-09T12:08:46;7.78;;;4.50;;
22697;SDS011;11516;51.612;7.510;2023-05-09T12:11:12;6.20;;;4.10;;
22697;SDS011;11516;51.612;7.510;2023-05-09T12:13:45;5.13;;;4.13;;
22697;SDS011;11516;51.612;7.510;2023-05-09T12:16:12;4.68;;;3.95;;
22697;SDS011;11516;51.612;7.510;2023-05-09T12:18:42;5.53;;;4.05;;
22697;SDS011;11516;51.612;7.510;2023-05-09T12:21:13;4.28;;;3.80;;
22697;SDS011;11516;51.612;7.510;2023-05-09T12:23:39;5.10;;;3.80;;
22697;SDS011;11516;51.612;7.510;2023-05-09T12:26:04;5.85;;;4.10;;
22697;SDS011;11516;51.612;7.510;2023-05-09T12:28:30;4.85;;;4.32;;
22697;SDS011;11516;51.612;7.510;2023-05-09T12:30:57;4.68;;;4.25;;
22697;SDS011;11516;51.612;7.510;2023-05-09T12:33:22;6.30;;;4.18;;
22697;SDS011;11516;51.612;7.510;2023-05-09T12:35:59;6.13;;;4.00;;
22697;SDS011;11516;51.612;7.510;2023-05-09T12:38:28;6.53;;;3.97;;
22697;SDS011;11516;51.612;7.510;2023-05-09T12:41:02;5.20;;;4.20;;
22697;SDS011;11516;51.612;7.510;2023-05-09T12:43:33;4.40;;;4.00;;
22697;SDS011;11516;51.612;7.510;2023-05-09T12:46:00;5.57;;;4.78;;
22697;SDS011;11516;51.612;7.510;2023-05-09T12:48:27;6.80;;;4.43;;
22697;SDS011;11516;51.612;7.510;2023-05-09T12:50:53;5.75;;;4.78;;
22697;SDS011;11516;51.612;7.510;2023-05-09T12:53:25;6.13;;;4.90;;
22697;SDS011;11516;51.612;7.510;2023-05-09T12:56:01;6.03;;;5.28;;
22697;SDS011;11516;51.612;7.510;2023-05-09T12:58:29;5.40;;;4.87;;
22697;SDS011;11516;51.612;7.510;2023-05-09T13:00:58;8.10;;;5.63;;
22697;SDS011;11516;51.612;7.510;2023-05-09T13:03:27;22.00;;;9.68;;
22697;SDS011;11516;51.612;7.510;2023-05-09T13:06:01;0.80;;;0.80;;
22697;SDS011;11516;51.612;7.510;2023-05-09T13:08:28;0.50;;;0.40;;
22697;SDS011;11516;51.612;7.510;2023-05-09T13:10:54;0.88;;;0.68;;
22697;SDS011;11516;51.612;7.510;2023-05-09T13:13:23;0.50;;;0.50;;
22697;SDS011;11516;51.612;7.510;2023-05-09T13:15:50;1.70;;;0.40;;
22697;SDS011;11516;51.612;7.510;2023-05-09T13:18:16;0.95;;;0.55;;
22697;SDS011;11516;51.612;7.510;2023-05-09T13:20:42;3.80;;;1.50;;
22697;SDS011;11516;51.612;7.510;2023-05-09T13:23:07;1.77;;;1.07;;
22697;SDS011;11516;51.612;7.510;2023-05-09T13:25:33;2.23;;;1.40;;
22697;SDS011;11516;51.612;7.510;2023-05-09T13:27:58;9.75;;;1.75;;
22697;SDS011;11516;51.612;7.510;2023-05-09T13:30:24;0.25;;;0.25;;
22697;SDS011;11516;51.612;7.510;2023-05-09T13:32:49;0.60;;;0.60;;
22697;SDS011;11516;51.612;7.510;2023-05-09T13:35:15;0.73;;;0.73;;
22697;SDS011;11516;51.612;7.510;2023-05-09T13:37:41;2.27;;;1.53;;
22697;SDS011;11516;51.612;7.510;2023-05-09T13:40:07;0.68;;;0.52;;
22697;SDS011;11516;51.612;7.510;2023-05-09T13:42:33;0.88;;;0.70;;
22697;SDS011;11516;51.612;7.510;2023-05-09T13:44:59;1.57;;;0.90;;
22697;SDS011;11516;51.612;7.510;2023-05-09T13:47:25;0.50;;;0.50;;
22697;SDS011;11516;51.612;7.510;2023-05-09T13:49:51;0.60;;;0.37;;
22697;SDS011;11516;51.612;7.510;2023-05-09T13:52:17;0.40;;;0.20;;
22697;SDS011;11516;51.612;7.510;2023-05-09T13:54:42;0.63;;;0.63;;
22697;SDS011;11516;51.612;7.510;2023-05-09T13:57:08;0.25;;;0.25;;
22697;SDS011;11516;51.612;7.510;2023-05-09T13:59:34;0.55;;;0.55;;
22697;SDS011;11516;51.612;7.510;2023-05-09T14:02:00;0.45;;;0.45;;
22697;SDS011;11516;51.612;7.510;2023-05-09T14:04:26;1.20;;;0.70;;
22697;SDS011;11516;51.612;7.510;2023-05-09T14:06:52;0.88;;;0.80;;
22697;SDS011;11516;51.612;7.510;2023-05-09T14:09:18;0.45;;;0.45;;
22697;SDS011;11516;51.612;7.510;2023-05-09T14:11:46;2.80;;;1.02;;
22697;SDS011;11516;51.612;7.510;2023-05-09T14:14:12;0.20;;;0.20;;
22697;SDS011;11516;51.612;7.510;2023-05-09T14:16:37;0.70;;;0.70;;
22697;SDS011;11516;51.612;7.510;2023-05-09T14:19:03;0.30;;;0.30;;
22697;SDS011;11516;51.612;7.510;2023-05-09T14:21:29;0.80;;;0.80;;
22697;SDS011;11516;51.612;7.510;2023-05-09T14:23:54;0.50;;;0.50;;
22697;SDS011;11516;51.612;7.510;2023-05-09T14:26:19;1.37;;;0.37;;
22697;SDS011;11516;51.612;7.510;2023-05-09T14:28:46;2.30;;;0.40;;
22697;SDS011;11516;51.612;7.510;2023-05-09T14:31:12;2.22;;;1.20;;
22697;SDS011;11516;51.612;7.510;2023-05-09T14:33:37;1.30;;;0.50;;
22697;SDS011;11516;51.612;7.510;2023-05-09T14:36:03;1.15;;;0.55;;
22697;SDS011;11516;51.612;7.510;2023-05-09T14:38:30;0.60;;;0.60;;
22697;SDS011;11516;51.612;7.510;2023-05-09T14:40:57;0.85;;;0.85;;
22697;SDS011;11516;51.612;7.510;2023-05-09T14:43:23;0.80;;;0.70;;
22697;SDS011;11516;51.612;7.510;2023-05-09T14:45:49;1.40;;;1.13;;
22697;SDS011;11516;51.612;7.510;2023-05-09T14:48:15;0.52;;;0.52;;